Fort Worth Nas Jrb/Carswell field
KNFW : now visible

Airfield :











YOU CAN JOIN US ON...

 
LOGIN :

Register | Disclaimer

   EN    FR    IT 

 









Legend :    VFR   Marginal VFR   IFR   Intensive IFR   Very Intensive IFR
Visi :
Ceiling :
>= 8 km
>= 3000ft
5 to 8 km
1000 to 3000 ft
1500m to 5 km
500 to 1000 ft
800 to 1500m
200 to 500 ft
< 800m
< 200 ft
Symbols :   Thunderstorms  Fog  Heavy snow  Heavy precipitations  Wind > 20 kt






- Airport Elevation : 650 ft


KNFW - Fort Worth Nas Jrb/Carswell field

CURRENT METAR :
  • 022152Z 16007G15KT 10SM FEW055 SCT110 BKN250 32/18 A3000 RMK AO2 SLP141 T03170183 VISNO N $

EXPIRED METARs :
  • 022052Z 15010G17KT 10SM FEW050 SCT070 BKN250 32/19 A3002 RMK AO2 SLP147 T03220189 57020 VISNO N $
  • 021952Z 17011G19KT 10SM FEW045 SCT085 BKN250 32/19 A3004 RMK AO2 SLP154 T03170189 VISNO N $

TAF AMD TAF KNFW
Valid from the 02 at 16:00 until the 03 at 15:00 UTC


0216/0315 17009KT 9999 SCT045 BKN080 BKN250 QNH3000INS
FM021900 17015KT 9999 -SHRA VCTS SCT045CB BKN080 BKN150 QNH2994INS
TEMPO 0223/0301 17015G20KT 9000 -TSRA BR BKN035CB OVC080
BECMG 0303/0305 16009KT 9999 NSW SCT018 BKN045 BKN150 QNH2992INS
BECMG 0309/0311 VRB04KT 9999 FEW010 SCT022 BKN080 QNH 2990INS T33/0221Z T21/0311Z AMD 1920 FN20046
KZFW FIR / North America



MET'MAP, your aeronautical weather chart ! - Copyright ORBIFLY December 2007 - Disclaimer

ORBIFLY MET'MAP TEAM :

Programming & Development : Alexandra Zaïnal
Concept & original design : Baudouin d'Aumeries
Assistance for programming : Marc-Olivier Méhu
Technical & hardware support : Manuel Goepfert

Contact : metmap@orbifly.com




SOURCES & CREDITS :

   NOAA       Earth
Advisory